createdAt,value
2018-09-20T00:01:30.041Z,94.60
2018-09-20T00:03:57.845Z,94.50
2018-09-20T00:06:25.715Z,94.50
2018-09-20T00:08:53.879Z,94.70
2018-09-20T00:11:21.751Z,94.70
2018-09-20T00:13:49.590Z,94.50
2018-09-20T00:16:17.461Z,94.50
2018-09-20T00:18:45.334Z,94.40
2018-09-20T00:21:13.317Z,94.50
2018-09-20T00:23:41.177Z,94.70
2018-09-20T00:26:09.274Z,95.00
2018-09-20T00:28:37.739Z,94.60
2018-09-20T00:31:06.289Z,94.50
2018-09-20T00:33:34.144Z,94.50
2018-09-20T00:36:02.074Z,94.20
2018-09-20T00:38:30.512Z,94.50
2018-09-20T00:40:58.386Z,94.20
2018-09-20T00:43:26.245Z,94.20
2018-09-20T00:45:54.093Z,94.10
2018-09-20T00:48:21.968Z,94.40
2018-09-20T00:50:49.793Z,94.50
2018-09-20T00:53:17.610Z,94.60
2018-09-20T00:55:45.424Z,94.60
2018-09-20T00:58:13.259Z,94.60
2018-09-20T01:00:41.089Z,94.50
2018-09-20T01:03:08.889Z,94.60
2018-09-20T01:05:38.833Z,94.70
2018-09-20T01:08:06.700Z,94.70
2018-09-20T01:10:43.032Z,94.60
2018-09-20T01:13:11.736Z,94.90
2018-09-20T01:15:39.574Z,94.70
2018-09-20T01:18:09.332Z,94.60
2018-09-20T01:20:37.282Z,94.60
2018-09-20T01:23:05.717Z,94.50
2018-09-20T01:25:33.541Z,94.60
2018-09-20T01:28:01.360Z,94.60
2018-09-20T01:30:33.428Z,94.50
2018-09-20T01:33:03.172Z,94.50
2018-09-20T01:35:33.200Z,94.40
2018-09-20T01:38:04.235Z,94.10
2018-09-20T01:40:36.252Z,94.30
2018-09-20T01:43:10.227Z,94.10
2018-09-20T01:45:39.365Z,94.10
2018-09-20T01:48:07.470Z,94.20
2018-09-20T01:50:40.311Z,94.20
2018-09-20T01:53:08.166Z,94.20
2018-09-20T01:55:46.801Z,94.20
2018-09-20T01:58:14.634Z,94.30
2018-09-20T02:00:45.144Z,94.40
2018-09-20T02:03:13.543Z,94.50
2018-09-20T02:05:41.527Z,94.30
2018-09-20T02:08:12.738Z,94.30
2018-09-20T02:10:40.638Z,94.50
2018-09-20T02:13:08.484Z,94.30
2018-09-20T02:15:36.323Z,94.40
2018-09-20T02:18:04.514Z,94.60
2018-09-20T02:20:32.335Z,94.40
2018-09-20T02:23:00.145Z,94.50
2018-09-20T02:25:28.004Z,94.50
2018-09-20T02:27:55.851Z,94.50
2018-09-20T02:30:23.689Z,94.60
2018-09-20T02:32:51.527Z,94.50
2018-09-20T02:35:19.387Z,94.60
2018-09-20T02:37:47.258Z,94.50
2018-09-20T02:40:15.105Z,94.10
2018-09-20T02:42:42.972Z,94.00
2018-09-20T02:45:10.836Z,94.00
2018-09-20T02:47:38.669Z,94.10
2018-09-20T02:50:06.631Z,93.60
2018-09-20T02:52:34.466Z,93.90
2018-09-20T02:55:02.349Z,94.00
2018-09-20T02:57:30.226Z,94.10
2018-09-20T02:59:58.077Z,94.00
2018-09-20T03:02:25.894Z,94.20
2018-09-20T03:04:57.665Z,94.20
2018-09-20T03:07:26.364Z,94.20
2018-09-20T03:09:56.442Z,94.10
2018-09-20T03:12:27.168Z,94.10
2018-09-20T03:14:58.000Z,94.10
2018-09-20T03:17:29.955Z,94.20
2018-09-20T03:19:57.800Z,94.10
2018-09-20T03:22:26.265Z,94.10
2018-09-20T03:24:56.571Z,94.30
2018-09-20T03:27:26.958Z,94.10
2018-09-20T03:29:54.779Z,94.20
2018-09-20T03:32:22.602Z,94.10
2018-09-20T03:34:52.773Z,94.40
2018-09-20T03:37:23.392Z,94.10
2018-09-20T03:39:54.621Z,94.20
2018-09-20T03:42:25.789Z,94.40
2018-09-20T03:44:55.683Z,94.50
2018-09-20T03:47:25.172Z,94.60
2018-09-20T03:49:54.035Z,94.60
2018-09-20T03:52:23.850Z,94.60
2018-09-20T03:54:57.714Z,94.60
2018-09-20T03:57:26.704Z,94.70
2018-09-20T03:59:58.665Z,94.60
2018-09-20T04:02:28.759Z,94.60
2018-09-20T04:04:56.585Z,94.70
2018-09-20T04:07:29.953Z,94.50
2018-09-20T04:09:59.810Z,94.30
2018-09-20T04:12:29.886Z,94.30
2018-09-20T04:15:00.091Z,94.40
2018-09-20T04:17:29.546Z,94.50
2018-09-20T04:19:57.429Z,94.40
2018-09-20T04:22:25.265Z,94.40
2018-09-20T04:24:53.311Z,94.30
2018-09-20T04:27:21.197Z,94.20
2018-09-20T04:29:48.993Z,94.10
2018-09-20T04:32:17.564Z,94.10
2018-09-20T04:34:46.806Z,94.20
2018-09-20T04:37:17.178Z,94.20
2018-09-20T04:39:45.314Z,94.20
2018-09-20T04:42:16.336Z,94.30
2018-09-20T04:44:44.976Z,94.30
2018-09-20T04:47:13.697Z,94.30
2018-09-20T04:49:41.527Z,94.20
2018-09-20T04:52:09.339Z,94.30
2018-09-20T04:54:37.188Z,94.30
2018-09-20T04:57:06.340Z,94.50
2018-09-20T04:59:34.705Z,94.50
2018-09-20T05:02:02.598Z,94.50
2018-09-20T05:04:31.103Z,94.50
2018-09-20T05:07:00.772Z,94.40
2018-09-20T05:09:28.693Z,94.30
2018-09-20T05:11:56.526Z,94.20
2018-09-20T05:14:26.658Z,94.30
2018-09-20T05:16:55.100Z,94.40
2018-09-20T05:19:23.915Z,94.40
2018-09-20T05:21:51.929Z,94.30
2018-09-20T05:24:21.389Z,94.60
2018-09-20T05:26:49.639Z,94.80
2018-09-20T05:29:21.528Z,95.00
2018-09-20T05:31:51.494Z,94.70
2018-09-20T05:34:19.539Z,94.80
2018-09-20T05:36:55.075Z,94.80
2018-09-20T05:39:23.029Z,94.80
2018-09-20T05:41:52.109Z,94.80
2018-09-20T05:44:23.914Z,94.80
2018-09-20T05:46:56.284Z,94.90
2018-09-20T05:49:28.649Z,94.90
2018-09-20T05:52:04.905Z,95.00
2018-09-20T05:54:33.694Z,95.20
2018-09-20T05:57:08.526Z,95.10
2018-09-20T05:59:41.120Z,95.20
2018-09-20T06:02:12.362Z,95.30
2018-09-20T06:04:44.696Z,95.40
2018-09-20T06:07:15.788Z,95.60
2018-09-20T06:09:49.128Z,95.40
2018-09-20T06:12:21.142Z,95.70
2018-09-20T06:14:50.795Z,95.50
2018-09-20T06:17:23.744Z,95.30
2018-09-20T06:19:55.220Z,95.40
2018-09-20T06:22:27.027Z,95.20
2018-09-20T06:24:55.861Z,95.40
2018-09-20T06:27:25.860Z,95.10
2018-09-20T06:29:56.559Z,95.20
2018-09-20T06:32:25.323Z,95.20
2018-09-20T06:34:55.844Z,95.00
2018-09-20T06:37:26.490Z,94.50
2018-09-20T06:39:57.943Z,94.80
2018-09-20T06:42:29.566Z,94.70
2018-09-20T06:45:00.108Z,94.30
2018-09-20T06:47:32.257Z,94.30
2018-09-20T06:50:03.809Z,94.40
2018-09-20T06:52:33.160Z,94.40
2018-09-20T06:55:01.462Z,94.50
2018-09-20T06:57:33.928Z,94.80
2018-09-20T07:00:03.199Z,94.60
2018-09-20T07:02:31.565Z,94.60
2018-09-20T07:05:00.529Z,94.70
2018-09-20T07:07:28.833Z,94.90
2018-09-20T07:09:57.524Z,94.60
2018-09-20T07:12:27.882Z,94.70
2018-09-20T07:14:56.725Z,94.50
2018-09-20T07:17:26.157Z,94.80
2018-09-20T07:19:54.332Z,94.80
2018-09-20T07:22:23.565Z,94.90
2018-09-20T07:24:52.101Z,94.60
2018-09-20T07:27:20.021Z,94.70
2018-09-20T07:29:49.411Z,94.80
2018-09-20T07:32:18.825Z,94.70
2018-09-20T07:34:47.309Z,94.40
2018-09-20T07:37:17.127Z,94.40
2018-09-20T07:39:45.458Z,94.30
2018-09-20T07:42:15.528Z,93.80
2018-09-20T07:44:43.500Z,93.60
2018-09-20T07:47:12.388Z,93.20
2018-09-20T07:49:41.146Z,92.80
2018-09-20T07:52:10.689Z,92.50
2018-09-20T07:54:38.653Z,92.40
2018-09-20T07:57:06.791Z,91.90
2018-09-20T07:59:34.758Z,92.20
2018-09-20T08:02:02.745Z,92.30
2018-09-20T08:04:30.609Z,92.00
2018-09-20T08:06:58.546Z,91.80
2018-09-20T08:09:27.724Z,91.80
2018-09-20T08:11:56.337Z,91.60
2018-09-20T08:14:24.245Z,91.50
2018-09-20T08:16:52.155Z,91.40
2018-09-20T08:19:20.440Z,91.10
2018-09-20T08:21:48.436Z,91.00
2018-09-20T08:36:16.581Z,91.30
2018-09-20T08:38:44.810Z,91.40
2018-09-20T08:41:12.663Z,91.50
2018-09-20T08:43:41.484Z,91.50
2018-09-20T08:46:09.649Z,90.60
2018-09-20T08:48:37.505Z,90.80
2018-09-20T08:51:05.466Z,90.80
2018-09-20T08:53:33.273Z,90.40
2018-09-20T08:56:01.821Z,90.10
2018-09-20T08:58:32.246Z,90.30
2018-09-20T09:01:01.245Z,90.10
2018-09-20T09:03:29.196Z,90.20
2018-09-20T09:05:57.070Z,89.60
2018-09-20T09:08:24.908Z,87.70
2018-09-20T09:10:52.804Z,88.90
2018-09-20T09:13:20.689Z,90.30
2018-09-20T09:15:48.754Z,89.10
2018-09-20T09:18:16.818Z,89.00
2018-09-20T09:20:44.805Z,88.50
2018-09-20T09:23:12.875Z,89.60
2018-09-20T09:25:40.774Z,89.10
2018-09-20T09:28:08.660Z,87.70
2018-09-20T09:30:36.759Z,88.00
2018-09-20T09:33:04.696Z,88.00
2018-09-20T09:35:32.571Z,88.00
2018-09-20T09:38:00.951Z,85.80
2018-09-20T09:40:29.172Z,85.70
2018-09-20T09:42:57.012Z,86.60
2018-09-20T09:45:24.855Z,86.40
2018-09-20T09:47:52.751Z,84.50
2018-09-20T09:50:20.670Z,83.30
2018-09-20T09:52:49.213Z,82.10
2018-09-20T09:55:17.117Z,79.90
2018-09-20T09:57:49.520Z,80.30
2018-09-20T10:00:21.168Z,81.20
2018-09-20T10:02:49.288Z,80.40
2018-09-20T10:05:17.115Z,78.50
2018-09-20T10:07:44.964Z,80.30
2018-09-20T10:10:12.807Z,80.60
2018-09-20T10:12:40.620Z,80.80
2018-09-20T10:15:08.457Z,79.30
2018-09-20T10:17:36.337Z,79.20
2018-09-20T10:20:04.500Z,77.50
2018-09-20T10:22:32.570Z,78.20
2018-09-20T10:25:00.706Z,78.70
2018-09-20T10:27:28.538Z,77.20
2018-09-20T10:29:56.404Z,77.20
2018-09-20T10:32:24.256Z,76.40
2018-09-20T10:34:52.117Z,75.80
2018-09-20T10:37:19.921Z,76.40
2018-09-20T10:39:47.771Z,76.90
2018-09-20T10:42:16.203Z,76.00
2018-09-20T10:44:44.040Z,75.10
2018-09-20T10:47:11.859Z,74.50
2018-09-20T10:49:39.703Z,75.50
2018-09-20T10:52:07.560Z,75.50
2018-09-20T10:54:35.485Z,76.20
2018-09-20T10:57:03.347Z,75.90
2018-09-20T10:59:31.205Z,76.50
2018-09-20T11:01:59.060Z,77.50
2018-09-20T11:04:26.911Z,76.10
2018-09-20T11:06:54.786Z,75.90
2018-09-20T11:09:22.882Z,73.40
2018-09-20T11:11:50.818Z,72.80
2018-09-20T11:14:18.722Z,75.30
2018-09-20T11:16:46.566Z,73.70
2018-09-20T11:19:14.392Z,76.50
2018-09-20T11:21:42.244Z,74.40
2018-09-20T11:24:10.059Z,73.20
2018-09-20T11:26:37.939Z,72.10
2018-09-20T11:29:05.772Z,67.30
2018-09-20T11:31:33.604Z,67.60
2018-09-20T11:34:01.496Z,65.00
2018-09-20T11:36:29.347Z,64.70
2018-09-20T11:38:57.245Z,69.60
2018-09-20T11:41:25.797Z,68.80
2018-09-20T11:43:53.651Z,69.10
2018-09-20T11:46:21.498Z,69.70
2018-09-20T11:48:49.364Z,69.80
2018-09-20T11:51:17.224Z,67.80
2018-09-20T11:53:45.053Z,68.00
2018-09-20T11:56:12.881Z,68.40
2018-09-20T11:58:40.717Z,65.50
2018-09-20T12:01:08.574Z,66.80
2018-09-20T12:03:36.446Z,64.70
2018-09-20T12:06:04.597Z,63.90
2018-09-20T12:08:32.450Z,63.50
2018-09-20T12:11:00.320Z,61.30
2018-09-20T12:13:28.184Z,63.90
2018-09-20T12:15:56.001Z,62.00
2018-09-20T12:18:23.934Z,62.30
2018-09-20T12:20:51.808Z,65.00
2018-09-20T12:23:19.649Z,68.30
2018-09-20T12:25:47.455Z,67.00
2018-09-20T12:28:15.325Z,67.80
2018-09-20T12:30:43.213Z,67.30
2018-09-20T12:33:11.015Z,64.90
2018-09-20T12:35:38.944Z,65.30
2018-09-20T12:38:06.784Z,63.70
2018-09-20T12:40:34.634Z,64.30
2018-09-20T12:43:03.082Z,63.20
2018-09-20T12:45:30.944Z,63.00
2018-09-20T12:47:58.801Z,62.20
2018-09-20T12:50:26.668Z,62.50
2018-09-20T12:52:54.492Z,64.10
2018-09-20T12:55:22.320Z,61.70
2018-09-20T12:57:50.162Z,62.40
2018-09-20T13:00:19.347Z,63.50
2018-09-20T13:02:47.730Z,61.60
2018-09-20T13:05:15.832Z,63.00
2018-09-20T13:07:44.356Z,61.90
2018-09-20T13:10:12.611Z,61.20
2018-09-20T13:12:40.485Z,62.10
2018-09-20T13:15:08.437Z,62.00
2018-09-20T13:17:36.284Z,62.40
2018-09-20T13:20:04.330Z,62.30
2018-09-20T13:22:32.119Z,64.10
2018-09-20T13:24:59.970Z,63.20
2018-09-20T13:27:27.829Z,61.00
2018-09-20T13:29:57.183Z,65.70
2018-09-20T13:32:26.468Z,62.70
2018-09-20T13:34:55.130Z,64.00
2018-09-20T13:37:23.049Z,63.30
2018-09-20T13:39:51.645Z,65.10
2018-09-20T13:42:19.602Z,63.00
2018-09-20T13:44:47.466Z,65.10
2018-09-20T13:47:15.735Z,66.20
2018-09-20T13:49:43.605Z,64.10
2018-09-20T13:52:11.460Z,63.30
2018-09-20T13:54:39.309Z,62.90
2018-09-20T13:57:07.149Z,66.10
2018-09-20T13:59:35.007Z,63.90
2018-09-20T14:02:02.929Z,64.00
2018-09-20T14:04:30.970Z,63.60
2018-09-20T14:06:58.812Z,62.90
2018-09-20T14:09:26.681Z,62.60
2018-09-20T14:11:54.496Z,62.30
2018-09-20T14:14:22.357Z,61.50
2018-09-20T14:16:50.165Z,63.90
2018-09-20T14:19:17.984Z,61.30
2018-09-20T14:21:45.979Z,62.30
2018-09-20T14:24:13.808Z,62.00
2018-09-20T14:26:41.672Z,61.80
2018-09-20T14:29:09.504Z,61.30
2018-09-20T14:31:37.345Z,60.90
2018-09-20T14:34:05.548Z,63.60
2018-09-20T14:36:33.688Z,63.80
2018-09-20T14:39:01.536Z,63.70
2018-09-20T14:41:29.636Z,62.20
2018-09-20T14:43:57.456Z,63.40
2018-09-20T14:46:25.679Z,63.50
2018-09-20T14:48:53.530Z,64.20
2018-09-20T14:51:21.399Z,62.30
2018-09-20T14:53:50.158Z,63.90
2018-09-20T14:56:18.095Z,62.50
2018-09-20T14:58:45.969Z,60.00
2018-09-20T15:01:13.885Z,63.40
2018-09-20T15:03:42.077Z,61.60
2018-09-20T15:06:09.919Z,60.10
2018-09-20T15:08:38.280Z,62.00
2018-09-20T15:11:06.260Z,61.20
2018-09-20T15:13:34.463Z,60.90
2018-09-20T15:16:02.436Z,63.20
2018-09-20T15:18:30.265Z,62.10
2018-09-20T15:20:58.081Z,61.20
2018-09-20T15:23:25.959Z,62.40
2018-09-20T15:25:54.072Z,64.10
2018-09-20T15:28:21.913Z,63.30
2018-09-20T15:30:49.805Z,63.00
2018-09-20T15:33:17.685Z,62.00
2018-09-20T15:35:45.518Z,62.30
2018-09-20T15:38:13.328Z,61.70
2018-09-20T15:40:41.179Z,61.00
2018-09-20T15:43:09.181Z,62.40
2018-09-20T15:45:37.004Z,62.30
2018-09-20T15:48:04.842Z,64.30
2018-09-20T15:50:32.673Z,64.00
2018-09-20T15:53:00.520Z,63.30
2018-09-20T15:55:28.350Z,63.80
2018-09-20T15:57:56.532Z,62.40
2018-09-20T16:00:24.337Z,63.20
2018-09-20T16:02:52.286Z,62.40
2018-09-20T16:05:20.165Z,61.80
2018-09-20T16:07:48.309Z,60.20
2018-09-20T16:10:16.444Z,60.70
2018-09-20T16:12:44.608Z,62.20
2018-09-20T16:15:12.437Z,62.60
2018-09-20T16:17:40.552Z,62.80
2018-09-20T16:20:08.445Z,63.20
2018-09-20T16:22:36.247Z,64.70
2018-09-20T16:25:04.899Z,65.40
2018-09-20T16:27:32.722Z,65.30
2018-09-20T16:30:17.249Z,66.70
2018-09-20T16:33:12.801Z,67.50
2018-09-20T16:35:56.604Z,68.80
2018-09-20T16:38:36.076Z,69.10
2018-09-20T16:41:06.719Z,69.40
2018-09-20T16:43:34.545Z,69.80
2018-09-20T16:46:03.063Z,70.80
2018-09-20T16:48:31.559Z,71.00
2018-09-20T16:50:59.418Z,71.50
2018-09-20T16:53:27.534Z,71.90
2018-09-20T16:55:55.326Z,71.50
2018-09-20T16:58:23.182Z,72.00
2018-09-20T17:00:51.021Z,76.10
2018-09-20T17:03:19.378Z,77.50
2018-09-20T17:05:47.442Z,77.30
2018-09-20T17:08:15.298Z,78.00
2018-09-20T17:10:43.183Z,77.90
2018-09-20T17:13:11.072Z,77.50
2018-09-20T17:15:38.864Z,77.30
2018-09-20T17:18:06.715Z,78.00
2018-09-20T17:20:34.601Z,78.10
2018-09-20T17:23:02.425Z,78.60
2018-09-20T17:25:30.585Z,80.20
2018-09-20T17:27:58.412Z,80.10
2018-09-20T17:30:26.291Z,80.60
2018-09-20T17:32:54.165Z,81.20
2018-09-20T17:35:22.761Z,81.40
2018-09-20T17:37:52.230Z,81.40
2018-09-20T17:40:21.761Z,81.40
2018-09-20T17:42:51.987Z,82.20
2018-09-20T17:45:19.860Z,82.10
2018-09-20T17:47:47.693Z,82.60
2018-09-20T17:50:17.349Z,82.30
2018-09-20T17:52:46.212Z,82.60
2018-09-20T17:55:14.782Z,83.10
2018-09-20T17:57:43.612Z,83.10
2018-09-20T18:00:11.881Z,84.10
2018-09-20T18:02:39.743Z,84.40
2018-09-20T18:05:07.625Z,84.60
2018-09-20T18:07:35.446Z,85.40
2018-09-20T18:10:03.345Z,85.60
2018-09-20T18:12:31.533Z,85.50
2018-09-20T18:14:59.471Z,85.70
2018-09-20T18:17:27.734Z,85.80
2018-09-20T18:19:55.592Z,85.60
2018-09-20T18:22:24.231Z,85.70
2018-09-20T18:24:52.088Z,85.50
2018-09-20T18:27:19.899Z,86.60
2018-09-20T18:29:47.912Z,87.60
2018-09-20T18:32:15.752Z,86.80
2018-09-20T18:34:43.633Z,87.00
2018-09-20T18:37:11.482Z,87.70
2018-09-20T18:39:39.329Z,87.80
2018-09-20T18:42:07.243Z,88.20
2018-09-20T18:44:35.131Z,88.10
2018-09-20T18:47:03.652Z,88.00
2018-09-20T18:49:31.493Z,88.80
2018-09-20T18:51:59.390Z,88.70
2018-09-20T18:54:27.274Z,88.80
2018-09-20T18:56:55.121Z,88.70
2018-09-20T18:59:23.625Z,88.90
2018-09-20T19:01:51.457Z,88.70
2018-09-20T19:04:19.332Z,88.90
2018-09-20T19:06:47.169Z,89.70
2018-09-20T19:09:15.023Z,90.00
2018-09-20T19:11:42.867Z,89.90
2018-09-20T19:14:10.782Z,90.00
2018-09-20T19:16:38.909Z,89.70
2018-09-20T19:19:06.812Z,89.40
2018-09-20T19:21:34.969Z,89.60
2018-09-20T19:24:03.945Z,89.40
2018-09-20T19:26:31.818Z,90.00
2018-09-20T19:28:59.677Z,90.00
2018-09-20T19:31:28.035Z,90.20
2018-09-20T19:33:55.919Z,90.10
2018-09-20T19:36:24.457Z,90.30
2018-09-20T19:38:52.424Z,90.50
2018-09-20T19:41:20.956Z,90.50
2018-09-20T19:43:49.358Z,90.40
2018-09-20T19:46:17.233Z,90.50
2018-09-20T19:48:45.131Z,90.40
2018-09-20T19:51:13.054Z,90.60
2018-09-20T19:53:40.977Z,90.70
2018-09-20T19:56:08.882Z,90.90
2018-09-20T19:58:37.620Z,90.70
2018-09-20T20:01:05.760Z,90.80
2018-09-20T20:03:34.203Z,90.90
2018-09-20T20:06:02.748Z,91.00
2018-09-20T20:08:30.918Z,90.90
2018-09-20T20:10:59.621Z,90.80
2018-09-20T20:13:28.121Z,90.90
2018-09-20T20:15:56.988Z,91.10
2018-09-20T20:18:24.889Z,91.10
2018-09-20T20:20:52.779Z,91.40
2018-09-20T20:23:21.659Z,91.20
2018-09-20T20:25:50.073Z,91.00
2018-09-20T20:28:17.947Z,91.00
2018-09-20T20:30:45.891Z,91.10
2018-09-20T20:33:14.443Z,91.20
2018-09-20T20:35:43.689Z,91.20
2018-09-20T20:38:11.614Z,91.00
2018-09-20T20:40:39.563Z,91.10
2018-09-20T20:43:08.148Z,91.10
2018-09-20T20:45:37.090Z,91.10
2018-09-20T20:48:05.122Z,91.20
2018-09-20T20:50:35.498Z,91.30
2018-09-20T20:53:03.514Z,91.30
2018-09-20T20:55:31.898Z,91.40
2018-09-20T20:57:59.782Z,91.20
2018-09-20T21:00:28.949Z,91.20
2018-09-20T21:02:57.375Z,91.20
2018-09-20T21:05:25.320Z,91.30
2018-09-20T21:07:53.337Z,91.20
2018-09-20T21:10:22.512Z,91.10
2018-09-20T21:12:50.735Z,91.20
2018-09-20T21:15:18.661Z,91.60
2018-09-20T21:17:47.250Z,91.60
2018-09-20T21:20:16.402Z,91.70
2018-09-20T21:22:46.126Z,91.70
2018-09-20T21:25:14.813Z,91.70
2018-09-20T21:27:43.354Z,91.60
2018-09-20T21:30:11.735Z,91.50
2018-09-20T21:32:41.202Z,91.40
2018-09-20T21:35:09.376Z,91.50
2018-09-20T21:37:39.892Z,91.60
2018-09-20T21:40:08.381Z,91.50
2018-09-20T21:42:39.716Z,91.60
2018-09-20T21:45:08.768Z,91.40
2018-09-20T21:47:37.480Z,91.30
2018-09-20T21:50:06.791Z,91.40
2018-09-20T21:52:34.967Z,91.60
2018-09-20T21:55:02.953Z,91.60
2018-09-20T21:57:34.906Z,91.60
2018-09-20T22:00:03.903Z,91.60
2018-09-20T22:02:38.732Z,91.70
2018-09-20T22:05:07.443Z,91.90
2018-09-20T22:07:37.276Z,91.90
2018-09-20T22:10:06.294Z,91.90
2018-09-20T22:12:36.006Z,91.90
2018-09-20T22:15:09.911Z,91.80
2018-09-20T22:17:39.341Z,91.90
2018-09-20T22:20:09.902Z,92.00
2018-09-20T22:22:41.123Z,91.90
2018-09-20T22:25:48.803Z,91.80
2018-09-20T22:28:17.633Z,91.80
2018-09-20T22:30:46.094Z,91.70
2018-09-20T22:33:14.659Z,91.50
2018-09-20T22:35:43.527Z,91.90
2018-09-20T22:38:14.383Z,91.80
2018-09-20T22:40:43.204Z,91.90
2018-09-20T22:43:13.899Z,91.80
2018-09-20T22:45:42.173Z,92.10
2018-09-20T22:48:15.705Z,92.30
2018-09-20T22:50:44.998Z,92.40
2018-09-20T22:53:13.085Z,92.30
2018-09-20T22:55:42.967Z,92.20
2018-09-20T22:58:13.208Z,92.20
2018-09-20T23:00:42.814Z,92.10
2018-09-20T23:03:11.102Z,92.10
2018-09-20T23:05:42.733Z,92.10
2018-09-20T23:08:12.432Z,92.00
2018-09-20T23:10:46.978Z,91.90
2018-09-20T23:13:16.490Z,92.00
2018-09-20T23:15:44.863Z,92.00
2018-09-20T23:18:15.922Z,92.00
2018-09-20T23:20:46.524Z,92.10
2018-09-20T23:23:15.736Z,92.20
2018-09-20T23:25:46.397Z,92.20
2018-09-20T23:28:16.209Z,92.10
2018-09-20T23:30:48.096Z,92.20
2018-09-20T23:33:16.747Z,92.10
2018-09-20T23:35:46.455Z,92.20
2018-09-20T23:38:15.748Z,92.20
2018-09-20T23:40:43.907Z,92.10
2018-09-20T23:43:14.437Z,92.20
2018-09-20T23:45:43.139Z,92.10
2018-09-20T23:48:11.083Z,92.10
2018-09-20T23:50:41.309Z,92.30
2018-09-20T23:53:10.598Z,92.10
2018-09-20T23:55:38.814Z,92.30
2018-09-20T23:58:08.692Z,92.30
